PWSweather.com
Personal Weather Stations
Station Observations
RIORANCHO
Corrales Heights, Rio Rancho, NM 87124

Corrales HeightsRio Rancho, NM 87124

Lat: 35.241928, Lon: -106.647095

Elevation: 5297

Station Type: Davis Vantage Pro 2 Plus

http://www.weatherriorancho.com

High Low Average
Temperature 48.5°F9.2°C 26.1°F-3.3°C 36.4°F2.4°C
Dew Point 23.3°F-4.8°C 5.9°F-14.5°C 14.5°F-9.7°C
Winds 11.5 mph 18.5 kmh Calm Calm 3.0 mph W4.8 kmh W
Wind Gusts 24.2 mph38.9 kmh -- 6.0 mph9.7 kmh
Humidity 68% 21% 44%
Pressure 30.08 in1018.6 mb 29.95 in1014.2 mb -
Precipitation 0.00 in0.0 mm - -
Hour Temp Dew Point Humidity Winds Wind Gusts Pressure Precip Precip Rate Daily Precip Total
12:00 AM 35.6°F2.0°C 21.0°F-6.1°C 55% Calm Calm -- 29.95 in1014.2 mb - 0.00 in0.0 mm 0.00 in0.0 mm
12:10 AM 35.3°F1.8°C 20.7°F-6.3°C 55% Calm Calm 3.5 mph5.6 kmh 29.95 in1014.2 mb - 0.00 in0.0 mm 0.00 in0.0 mm
12:20 AM 35.1°F1.7°C 21.0°F-6.1°C 56% 1.2 mph NNW1.9 kmh NNW 8.1 mph13.0 kmh 29.95 in1014.2 mb - 0.00 in0.0 mm 0.00 in0.0 mm
12:30 AM 34.9°F1.6°C 21.2°F-6.0°C 57% 1.2 mph NNW1.9 kmh NNW 3.5 mph5.6 kmh 29.96 in1014.6 mb - 0.00 in0.0 mm 0.00 in0.0 mm
12:40 AM 34.8°F1.6°C 21.5°F-5.8°C 58% Calm Calm 1.2 mph1.9 kmh 29.95 in1014.2 mb - 0.00 in0.0 mm 0.00 in0.0 mm
12:50 AM 34.8°F1.6°C 21.9°F-5.6°C 59% 2.3 mph NNW3.7 kmh NNW 5.8 mph9.3 kmh 29.95 in1014.2 mb - 0.00 in0.0 mm 0.00 in0.0 mm
01:00 AM 34.8°F1.6°C 21.9°F-5.6°C 59% 1.2 mph NNW1.9 kmh NNW -- 29.95 in1014.2 mb - 0.00 in0.0 mm 0.00 in0.0 mm
01:10 AM 34.8°F1.6°C 22.3°F-5.4°C 60% 3.5 mph NNW5.6 kmh NNW 6.9 mph11.1 kmh 29.95 in1014.2 mb - 0.00 in0.0 mm 0.00 in0.0 mm
01:20 AM 34.8°F1.6°C 22.3°F-5.4°C 60% Calm Calm 2.3 mph3.7 kmh 29.95 in1014.2 mb - 0.00 in0.0 mm 0.00 in0.0 mm
01:30 AM 34.8°F1.6°C 22.7°F-5.2°C 61% Calm Calm -- 29.96 in1014.6 mb - 0.00 in0.0 mm 0.00 in0.0 mm
01:40 AM 34.8°F1.6°C 22.7°F-5.2°C 61% Calm Calm -- 29.95 in1014.2 mb - 0.00 in0.0 mm 0.00 in0.0 mm
01:50 AM 34.9°F1.6°C 22.8°F-5.1°C 61% Calm Calm -- 29.96 in1014.6 mb - 0.00 in0.0 mm 0.00 in0.0 mm
02:00 AM 34.8°F1.6°C 23.1°F-4.9°C 62% Calm Calm -- 29.96 in1014.6 mb - 0.00 in0.0 mm 0.00 in0.0 mm
02:10 AM 34.6°F1.4°C 22.9°F-5.1°C 62% Calm Calm -- 29.96 in1014.6 mb - 0.00 in0.0 mm 0.00 in0.0 mm
02:20 AM 34.4°F1.3°C 23.1°F-4.9°C 63% Calm Calm -- 29.96 in1014.6 mb - 0.00 in0.0 mm 0.00 in0.0 mm
02:30 AM 34.1°F1.2°C 23.2°F-4.9°C 64% Calm Calm -- 29.96 in1014.6 mb - 0.00 in0.0 mm 0.00 in0.0 mm
02:40 AM 33.8°F1.0°C 22.9°F-5.1°C 64% Calm Calm -- 29.96 in1014.6 mb - 0.00 in0.0 mm 0.00 in0.0 mm
02:50 AM 33.6°F0.9°C 23.1°F-4.9°C 65% Calm Calm -- 29.96 in1014.6 mb - 0.00 in0.0 mm 0.00 in0.0 mm
03:00 AM 33.5°F0.8°C 23.0°F-5.0°C 65% Calm Calm -- 29.96 in1014.6 mb - 0.00 in0.0 mm 0.00 in0.0 mm
03:10 AM 33.4°F0.8°C 23.3°F-4.8°C 66% Calm Calm -- 29.96 in1014.6 mb - 0.00 in0.0 mm 0.00 in0.0 mm
03:20 AM 33.5°F0.8°C 22.6°F-5.2°C 64% Calm Calm 3.5 mph5.6 kmh 29.96 in1014.6 mb - 0.00 in0.0 mm 0.00 in0.0 mm
03:30 AM 33.4°F0.8°C 21.0°F-6.1°C 60% Calm Calm 2.3 mph3.7 kmh 29.95 in1014.2 mb - 0.00 in0.0 mm 0.00 in0.0 mm
03:40 AM 33.1°F0.6°C 20.7°F-6.3°C 60% Calm Calm -- 29.95 in1014.2 mb - 0.00 in0.0 mm 0.00 in0.0 mm
03:50 AM 32.7°F0.4°C 20.3°F-6.5°C 60% Calm Calm 3.5 mph5.6 kmh 29.95 in1014.2 mb - 0.00 in0.0 mm 0.00 in0.0 mm
04:00 AM 32.2°F0.1°C 19.8°F-6.8°C 60% 4.6 mph W7.4 kmh W 8.1 mph13.0 kmh 29.95 in1014.2 mb - 0.00 in0.0 mm 0.00 in0.0 mm
04:10 AM 31.6°F-0.2°C 19.3°F-7.1°C 60% Calm Calm 2.3 mph3.7 kmh 29.95 in1014.2 mb - 0.00 in0.0 mm 0.00 in0.0 mm
04:20 AM 30.9°F-0.6°C 19.1°F-7.2°C 61% Calm Calm -- 29.95 in1014.2 mb - 0.00 in0.0 mm 0.00 in0.0 mm
04:30 AM 30.5°F-0.8°C 19.4°F-7.0°C 63% Calm Calm 2.3 mph3.7 kmh 29.95 in1014.2 mb - 0.00 in0.0 mm 0.00 in0.0 mm
04:40 AM 30.3°F-0.9°C 19.2°F-7.1°C 63% Calm Calm -- 29.96 in1014.6 mb - 0.00 in0.0 mm 0.00 in0.0 mm
04:50 AM 30.2°F-1.0°C 19.5°F-6.9°C 64% Calm Calm -- 29.95 in1014.2 mb - 0.00 in0.0 mm 0.00 in0.0 mm
05:00 AM 29.9°F-1.2°C 19.9°F-6.7°C 66% Calm Calm 1.2 mph1.9 kmh 29.96 in1014.6 mb - 0.00 in0.0 mm 0.00 in0.0 mm
05:10 AM 29.5°F-1.4°C 20.2°F-6.6°C 68% Calm Calm 1.2 mph1.9 kmh 29.96 in1014.6 mb - 0.00 in0.0 mm 0.00 in0.0 mm
05:20 AM 29.1°F-1.6°C 19.5°F-6.9°C 67% 1.2 mph W1.9 kmh W 3.5 mph5.6 kmh 29.96 in1014.6 mb - 0.00 in0.0 mm 0.00 in0.0 mm
05:30 AM 28.7°F-1.8°C 18.1°F-7.7°C 64% 1.2 mph W1.9 kmh W 3.5 mph5.6 kmh 29.97 in1014.9 mb - 0.00 in0.0 mm 0.00 in0.0 mm
05:40 AM 28.9°F-1.7°C 17.5°F-8.1°C 62% 3.5 mph W5.6 kmh W 9.2 mph14.8 kmh 29.97 in1014.9 mb - 0.00 in0.0 mm 0.00 in0.0 mm
05:50 AM 28.9°F-1.7°C 16.7°F-8.5°C 60% 2.3 mph W3.7 kmh W 4.6 mph7.4 kmh 29.98 in1015.2 mb - 0.00 in0.0 mm 0.00 in0.0 mm
06:00 AM 28.7°F-1.8°C 16.6°F-8.6°C 60% 3.5 mph W5.6 kmh W 4.6 mph7.4 kmh 29.98 in1015.2 mb - 0.00 in0.0 mm 0.00 in0.0 mm
06:10 AM 28.4°F-2.0°C 16.3°F-8.7°C 60% 3.5 mph W5.6 kmh W 9.2 mph14.8 kmh 29.99 in1015.6 mb - 0.00 in0.0 mm 0.00 in0.0 mm
06:20 AM 28.3°F-2.1°C 16.6°F-8.6°C 61% 2.3 mph W3.7 kmh W 5.8 mph9.3 kmh 29.99 in1015.6 mb - 0.00 in0.0 mm 0.00 in0.0 mm
06:30 AM 27.9°F-2.3°C 16.2°F-8.8°C 61% 4.6 mph W7.4 kmh W 8.1 mph13.0 kmh 30.00 in1015.9 mb - 0.00 in0.0 mm 0.00 in0.0 mm
06:40 AM 27.5°F-2.5°C 16.1°F-8.8°C 62% 2.3 mph W3.7 kmh W 3.5 mph5.6 kmh 30.00 in1015.9 mb - 0.00 in0.0 mm 0.00 in0.0 mm
06:50 AM 27.1°F-2.7°C 16.1°F-8.8°C 63% 1.2 mph W1.9 kmh W 3.5 mph5.6 kmh 30.00 in1015.9 mb - 0.00 in0.0 mm 0.00 in0.0 mm
07:00 AM 26.8°F-2.9°C 16.2°F-8.8°C 64% 1.2 mph W1.9 kmh W 3.5 mph5.6 kmh 30.00 in1015.9 mb - 0.00 in0.0 mm 0.00 in0.0 mm
07:10 AM 26.7°F-2.9°C 16.5°F-8.6°C 65% 1.2 mph W1.9 kmh W 2.3 mph3.7 kmh 30.00 in1015.9 mb - 0.00 in0.0 mm 0.00 in0.0 mm
07:20 AM 26.7°F-2.9°C 16.5°F-8.6°C 65% 1.2 mph W1.9 kmh W 3.5 mph5.6 kmh 30.00 in1015.9 mb - 0.00 in0.0 mm 0.00 in0.0 mm
07:30 AM 26.7°F-2.9°C 16.5°F-8.6°C 65% Calm Calm 4.6 mph7.4 kmh 30.01 in1016.3 mb - 0.00 in0.0 mm 0.00 in0.0 mm
07:40 AM 26.5°F-3.1°C 16.7°F-8.5°C 66% Calm Calm 2.3 mph3.7 kmh 30.01 in1016.3 mb - 0.00 in0.0 mm 0.00 in0.0 mm
07:50 AM 26.6°F-3.0°C 16.8°F-8.4°C 66% 1.2 mph W1.9 kmh W 3.5 mph5.6 kmh 30.02 in1016.6 mb - 0.00 in0.0 mm 0.00 in0.0 mm
08:00 AM 26.4°F-3.1°C 16.6°F-8.6°C 66% Calm Calm 2.3 mph3.7 kmh 30.02 in1016.6 mb - 0.00 in0.0 mm 0.00 in0.0 mm
08:10 AM 26.1°F-3.3°C 16.3°F-8.7°C 66% Calm Calm 3.5 mph5.6 kmh 30.03 in1016.9 mb - 0.00 in0.0 mm 0.00 in0.0 mm
08:20 AM 26.1°F-3.3°C 17.0°F-8.3°C 68% 1.2 mph W1.9 kmh W 2.3 mph3.7 kmh 30.04 in1017.3 mb - 0.00 in0.0 mm 0.00 in0.0 mm
08:30 AM 26.1°F-3.3°C 17.0°F-8.3°C 68% 1.2 mph W1.9 kmh W 3.5 mph5.6 kmh 30.04 in1017.3 mb - 0.00 in0.0 mm 0.00 in0.0 mm
08:40 AM 27.2°F-2.7°C 17.7°F-7.9°C 67% 4.6 mph W7.4 kmh W 9.2 mph14.8 kmh 30.05 in1017.6 mb - 0.00 in0.0 mm 0.00 in0.0 mm
08:50 AM 28.3°F-2.1°C 18.0°F-7.8°C 65% 3.5 mph W5.6 kmh W 6.9 mph11.1 kmh 30.05 in1017.6 mb - 0.00 in0.0 mm 0.00 in0.0 mm
09:00 AM 29.4°F-1.4°C 18.7°F-7.4°C 64% 5.8 mph W9.3 kmh W 11.5 mph18.5 kmh 30.05 in1017.6 mb - 0.00 in0.0 mm 0.00 in0.0 mm
09:10 AM 30.7°F-0.7°C 18.9°F-7.3°C 61% 1.2 mph W1.9 kmh W 4.6 mph7.4 kmh 30.06 in1017.9 mb - 0.00 in0.0 mm 0.00 in0.0 mm
09:20 AM 31.7°F-0.2°C 19.0°F-7.2°C 59% 6.9 mph WNW11.1 kmh WNW 12.7 mph20.4 kmh 30.05 in1017.6 mb - 0.00 in0.0 mm 0.00 in0.0 mm
09:30 AM 31.9°F-0.1°C 18.0°F-7.8°C 56% 5.8 mph W9.3 kmh W 10.4 mph16.7 kmh 30.06 in1017.9 mb - 0.00 in0.0 mm 0.00 in0.0 mm
09:40 AM 31.5°F-0.3°C 18.4°F-7.6°C 58% 4.6 mph NW7.4 kmh NW 11.5 mph18.5 kmh 30.06 in1017.9 mb - 0.00 in0.0 mm 0.00 in0.0 mm
09:50 AM 32.1°F0.1°C 18.5°F-7.5°C 57% 8.1 mph NW13.0 kmh NW 11.5 mph18.5 kmh 30.07 in1018.3 mb - 0.00 in0.0 mm 0.00 in0.0 mm
10:00 AM 33.5°F0.8°C 18.2°F-7.7°C 53% 3.5 mph WNW5.6 kmh WNW 10.4 mph16.7 kmh 30.07 in1018.3 mb - 0.00 in0.0 mm 0.00 in0.0 mm
10:10 AM 33.9°F1.1°C 18.1°F-7.7°C 52% 3.5 mph WSW5.6 kmh WSW 9.2 mph14.8 kmh 30.07 in1018.3 mb - 0.00 in0.0 mm 0.00 in0.0 mm
10:20 AM 35.0°F1.7°C 17.7°F-7.9°C 49% 5.8 mph WNW9.3 kmh WNW 10.4 mph16.7 kmh 30.07 in1018.3 mb - 0.00 in0.0 mm 0.00 in0.0 mm
10:30 AM 34.3°F1.3°C 16.6°F-8.6°C 48% 4.6 mph W7.4 kmh W 11.5 mph18.5 kmh 30.07 in1018.3 mb - 0.00 in0.0 mm 0.00 in0.0 mm
10:40 AM 35.3°F1.8°C 17.0°F-8.3°C 47% 2.3 mph W3.7 kmh W 12.7 mph20.4 kmh 30.07 in1018.3 mb - 0.00 in0.0 mm 0.00 in0.0 mm
10:50 AM 36.0°F2.2°C 16.2°F-8.8°C 44% 11.5 mph NW18.5 kmh NW 16.1 mph25.9 kmh 30.07 in1018.3 mb - 0.00 in0.0 mm 0.00 in0.0 mm
11:00 AM 36.0°F2.2°C 16.7°F-8.5°C 45% 4.6 mph W7.4 kmh W 6.9 mph11.1 kmh 30.07 in1018.3 mb - 0.00 in0.0 mm 0.00 in0.0 mm
11:10 AM 36.7°F2.6°C 15.7°F-9.1°C 42% 8.1 mph WSW13.0 kmh WSW 16.1 mph25.9 kmh 30.07 in1018.3 mb - 0.00 in0.0 mm 0.00 in0.0 mm
11:20 AM 38.2°F3.4°C 15.4°F-9.2°C 39% 9.2 mph WSW14.8 kmh WSW 11.5 mph18.5 kmh 30.07 in1018.3 mb - 0.00 in0.0 mm 0.00 in0.0 mm
11:30 AM 37.9°F3.3°C 15.2°F-9.3°C 39% 6.9 mph WSW11.1 kmh WSW 13.8 mph22.2 kmh 30.07 in1018.3 mb - 0.00 in0.0 mm 0.00 in0.0 mm
11:40 AM 38.8°F3.8°C 14.7°F-9.6°C 37% 9.2 mph W14.8 kmh W 20.7 mph33.3 kmh 30.08 in1018.6 mb - 0.00 in0.0 mm 0.00 in0.0 mm
11:50 AM 38.8°F3.8°C 12.8°F-10.7°C 34% 9.2 mph W14.8 kmh W 13.8 mph22.2 kmh 30.08 in1018.6 mb - 0.00 in0.0 mm 0.00 in0.0 mm
12:00 PM 39.4°F4.1°C 13.3°F-10.4°C 34% 9.2 mph W14.8 kmh W 13.8 mph22.2 kmh 30.07 in1018.3 mb - 0.00 in0.0 mm 0.00 in0.0 mm
12:10 PM 38.7°F3.7°C 12.7°F-10.7°C 34% 9.2 mph WNW14.8 kmh WNW 12.7 mph20.4 kmh 30.07 in1018.3 mb - 0.00 in0.0 mm 0.00 in0.0 mm
12:20 PM 40.2°F4.6°C 11.9°F-11.2°C 31% 8.1 mph W13.0 kmh W 15.0 mph24.1 kmh 30.07 in1018.3 mb - 0.00 in0.0 mm 0.00 in0.0 mm
12:30 PM 41.1°F5.1°C 10.4°F-12.0°C 28% 8.1 mph W13.0 kmh W 16.1 mph25.9 kmh 30.07 in1018.3 mb - 0.00 in0.0 mm 0.00 in0.0 mm
12:40 PM 41.0°F5.0°C 10.4°F-12.0°C 28% 8.1 mph WNW13.0 kmh WNW 15.0 mph24.1 kmh 30.06 in1017.9 mb - 0.00 in0.0 mm 0.00 in0.0 mm
12:50 PM 41.3°F5.2°C 9.8°F-12.3°C 27% 9.2 mph NW14.8 kmh NW 12.7 mph20.4 kmh 30.05 in1017.6 mb - 0.00 in0.0 mm 0.00 in0.0 mm
01:00 PM 42.0°F5.6°C 8.7°F-12.9°C 25% 11.5 mph WNW18.5 kmh WNW 16.1 mph25.9 kmh 30.05 in1017.6 mb - 0.00 in0.0 mm 0.00 in0.0 mm
01:10 PM 42.4°F5.8°C 9.9°F-12.3°C 26% 9.2 mph WSW14.8 kmh WSW 11.5 mph18.5 kmh 30.05 in1017.6 mb - 0.00 in0.0 mm 0.00 in0.0 mm
01:20 PM 43.3°F6.3°C 8.8°F-12.9°C 24% 11.5 mph WSW18.5 kmh WSW 16.1 mph25.9 kmh 30.04 in1017.3 mb - 0.00 in0.0 mm 0.00 in0.0 mm
01:30 PM 43.3°F6.3°C 5.9°F-14.5°C 21% 8.1 mph WSW13.0 kmh WSW 24.2 mph38.9 kmh 30.04 in1017.3 mb - 0.00 in0.0 mm 0.00 in0.0 mm
01:40 PM 43.7°F6.5°C 8.2°F-13.2°C 23% 6.9 mph WSW11.1 kmh WSW 12.7 mph20.4 kmh 30.04 in1017.3 mb - 0.00 in0.0 mm 0.00 in0.0 mm
01:50 PM 43.5°F6.4°C 9.0°F-12.8°C 24% 5.8 mph W9.3 kmh W 11.5 mph18.5 kmh 30.03 in1016.9 mb - 0.00 in0.0 mm 0.00 in0.0 mm
02:00 PM 43.5°F6.4°C 7.1°F-13.8°C 22% 9.2 mph WNW14.8 kmh WNW 13.8 mph22.2 kmh 30.03 in1016.9 mb - 0.00 in0.0 mm 0.00 in0.0 mm
02:10 PM 45.0°F7.2°C 10.3°F-12.1°C 24% 3.5 mph WNW5.6 kmh WNW 13.8 mph22.2 kmh 30.02 in1016.6 mb - 0.00 in0.0 mm 0.00 in0.0 mm
02:20 PM 44.7°F7.1°C 10.1°F-12.2°C 24% 6.9 mph WSW11.1 kmh WSW 11.5 mph18.5 kmh 30.02 in1016.6 mb - 0.00 in0.0 mm 0.00 in0.0 mm
02:30 PM 45.1°F7.3°C 10.4°F-12.0°C 24% 5.8 mph W9.3 kmh W 9.2 mph14.8 kmh 30.02 in1016.6 mb - 0.00 in0.0 mm 0.00 in0.0 mm
02:40 PM 45.4°F7.4°C 10.7°F-11.8°C 24% 5.8 mph W9.3 kmh W 13.8 mph22.2 kmh 30.01 in1016.3 mb - 0.00 in0.0 mm 0.00 in0.0 mm
02:50 PM 45.6°F7.6°C 10.8°F-11.8°C 24% 1.2 mph W1.9 kmh W 5.8 mph9.3 kmh 30.01 in1016.3 mb - 0.00 in0.0 mm 0.00 in0.0 mm
03:00 PM 46.0°F7.8°C 10.2°F-12.1°C 23% 5.8 mph WNW9.3 kmh WNW 10.4 mph16.7 kmh 30.00 in1015.9 mb - 0.00 in0.0 mm 0.00 in0.0 mm
03:10 PM 46.3°F7.9°C 11.4°F-11.4°C 24% 4.6 mph W7.4 kmh W 12.7 mph20.4 kmh 30.00 in1015.9 mb - 0.00 in0.0 mm 0.00 in0.0 mm
03:20 PM 46.7°F8.2°C 10.8°F-11.8°C 23% 3.5 mph W5.6 kmh W 8.1 mph13.0 kmh 30.00 in1015.9 mb - 0.00 in0.0 mm 0.00 in0.0 mm
03:30 PM 47.0°F8.3°C 10.0°F-12.2°C 22% 10.4 mph W16.7 kmh W 15.0 mph24.1 kmh 30.00 in1015.9 mb - 0.00 in0.0 mm 0.00 in0.0 mm
03:40 PM 47.2°F8.4°C 11.2°F-11.6°C 23% 3.5 mph W5.6 kmh W 5.8 mph9.3 kmh 30.00 in1015.9 mb - 0.00 in0.0 mm 0.00 in0.0 mm
03:50 PM 46.5°F8.1°C 10.6°F-11.9°C 23% 2.3 mph WNW3.7 kmh WNW 9.2 mph14.8 kmh 29.99 in1015.6 mb - 0.00 in0.0 mm 0.00 in0.0 mm
04:00 PM 47.7°F8.7°C 10.7°F-11.8°C 22% Calm Calm 1.2 mph1.9 kmh 29.99 in1015.6 mb - 0.00 in0.0 mm 0.00 in0.0 mm
04:10 PM 47.7°F8.7°C 10.6°F-11.9°C 22% 5.8 mph W9.3 kmh W 11.5 mph18.5 kmh 29.98 in1015.2 mb - 0.00 in0.0 mm 0.00 in0.0 mm
04:20 PM 48.3°F9.1°C 10.1°F-12.2°C 21% 1.2 mph WSW1.9 kmh WSW 10.4 mph16.7 kmh 29.98 in1015.2 mb - 0.00 in0.0 mm 0.00 in0.0 mm
04:30 PM 48.5°F9.2°C 10.3°F-12.1°C 21% 1.2 mph W1.9 kmh W 5.8 mph9.3 kmh 29.98 in1015.2 mb - 0.00 in0.0 mm 0.00 in0.0 mm
04:40 PM 47.8°F8.8°C 10.8°F-11.8°C 22% Calm Calm -- 29.98 in1015.2 mb - 0.00 in0.0 mm 0.00 in0.0 mm
04:50 PM 47.6°F8.7°C 9.5°F-12.5°C 21% 3.5 mph NW5.6 kmh NW 3.5 mph5.6 kmh 29.98 in1015.2 mb - 0.00 in0.0 mm 0.00 in0.0 mm
05:00 PM 47.0°F8.3°C 10.1°F-12.2°C 22% Calm Calm -- 29.98 in1015.2 mb - 0.00 in0.0 mm 0.00 in0.0 mm
05:10 PM 46.7°F8.2°C 9.8°F-12.3°C 22% 1.2 mph NW1.9 kmh NW 3.5 mph5.6 kmh 29.98 in1015.2 mb - 0.00 in0.0 mm 0.00 in0.0 mm
05:20 PM 47.5°F8.6°C 9.4°F-12.6°C 21% 1.2 mph WNW1.9 kmh WNW 8.1 mph13.0 kmh 29.98 in1015.2 mb - 0.00 in0.0 mm 0.00 in0.0 mm
05:30 PM 46.3°F7.9°C 9.4°F-12.6°C 22% Calm Calm -- 29.98 in1015.2 mb - 0.00 in0.0 mm 0.00 in0.0 mm
05:40 PM 45.4°F7.4°C 9.7°F-12.4°C 23% 3.5 mph WNW5.6 kmh WNW 5.8 mph9.3 kmh 29.98 in1015.2 mb - 0.00 in0.0 mm 0.00 in0.0 mm
05:50 PM 44.6°F7.0°C 9.0°F-12.8°C 23% Calm Calm -- 29.98 in1015.2 mb - 0.00 in0.0 mm 0.00 in0.0 mm
06:00 PM 44.3°F6.8°C 9.7°F-12.4°C 24% Calm Calm -- 29.98 in1015.2 mb - 0.00 in0.0 mm 0.00 in0.0 mm
06:10 PM 44.0°F6.7°C 9.4°F-12.6°C 24% Calm Calm 3.5 mph5.6 kmh 29.98 in1015.2 mb - 0.00 in0.0 mm 0.00 in0.0 mm
06:20 PM 43.6°F6.4°C 10.0°F-12.2°C 25% Calm Calm -- 29.97 in1014.9 mb - 0.00 in0.0 mm 0.00 in0.0 mm
06:30 PM 43.0°F6.1°C 10.4°F-12.0°C 26% Calm Calm 1.2 mph1.9 kmh 29.97 in1014.9 mb - 0.00 in0.0 mm 0.00 in0.0 mm
06:40 PM 42.3°F5.7°C 10.6°F-11.9°C 27% Calm Calm -- 29.97 in1014.9 mb - 0.00 in0.0 mm 0.00 in0.0 mm
06:50 PM 42.0°F5.6°C 10.4°F-12.0°C 27% Calm Calm -- 29.97 in1014.9 mb - 0.00 in0.0 mm 0.00 in0.0 mm
07:00 PM 41.6°F5.3°C 10.9°F-11.7°C 28% Calm Calm -- 29.97 in1014.9 mb - 0.00 in0.0 mm 0.00 in0.0 mm
07:10 PM 41.2°F5.1°C 10.5°F-11.9°C 28% Calm Calm -- 29.98 in1015.2 mb - 0.00 in0.0 mm 0.00 in0.0 mm
07:20 PM 40.6°F4.8°C 11.5°F-11.4°C 30% Calm Calm -- 29.98 in1015.2 mb - 0.00 in0.0 mm 0.00 in0.0 mm
07:30 PM 40.2°F4.6°C 11.2°F-11.6°C 30% Calm Calm -- 29.99 in1015.6 mb - 0.00 in0.0 mm 0.00 in0.0 mm
07:40 PM 40.0°F4.4°C 11.0°F-11.7°C 30% Calm Calm -- 29.99 in1015.6 mb - 0.00 in0.0 mm 0.00 in0.0 mm
07:50 PM 39.7°F4.3°C 11.5°F-11.4°C 31% Calm Calm -- 29.99 in1015.6 mb - 0.00 in0.0 mm 0.00 in0.0 mm
08:00 PM 39.6°F4.2°C 11.4°F-11.4°C 31% 2.3 mph NW3.7 kmh NW 4.6 mph7.4 kmh 29.99 in1015.6 mb - 0.00 in0.0 mm 0.00 in0.0 mm
08:10 PM 39.2°F4.0°C 11.1°F-11.6°C 31% 8.1 mph SW13.0 kmh SW 13.8 mph22.2 kmh 29.99 in1015.6 mb - 0.00 in0.0 mm 0.00 in0.0 mm
08:20 PM 38.8°F3.8°C 11.4°F-11.4°C 32% 9.2 mph SW14.8 kmh SW 11.5 mph18.5 kmh 30.00 in1015.9 mb - 0.00 in0.0 mm 0.00 in0.0 mm
08:30 PM 38.3°F3.5°C 11.7°F-11.3°C 33% 2.3 mph SW3.7 kmh SW 5.8 mph9.3 kmh 30.00 in1015.9 mb - 0.00 in0.0 mm 0.00 in0.0 mm
08:40 PM 37.8°F3.2°C 11.2°F-11.6°C 33% 6.9 mph SW11.1 kmh SW 10.4 mph16.7 kmh 30.00 in1015.9 mb - 0.00 in0.0 mm 0.00 in0.0 mm
08:50 PM 37.4°F3.0°C 11.5°F-11.4°C 34% 6.9 mph SW11.1 kmh SW 5.8 mph9.3 kmh 30.00 in1015.9 mb - 0.00 in0.0 mm 0.00 in0.0 mm
09:00 PM 37.1°F2.8°C 11.3°F-11.5°C 34% 5.8 mph SW9.3 kmh SW 11.5 mph18.5 kmh 30.00 in1015.9 mb - 0.00 in0.0 mm 0.00 in0.0 mm
09:10 PM 36.9°F2.7°C 11.7°F-11.3°C 35% 6.9 mph SW11.1 kmh SW 10.4 mph16.7 kmh 30.00 in1015.9 mb - 0.00 in0.0 mm 0.00 in0.0 mm
09:20 PM 36.6°F2.6°C 11.5°F-11.4°C 35% 8.1 mph SW13.0 kmh SW 11.5 mph18.5 kmh 30.00 in1015.9 mb - 0.00 in0.0 mm 0.00 in0.0 mm
09:30 PM 36.4°F2.4°C 11.9°F-11.2°C 36% 10.4 mph SW16.7 kmh SW 11.5 mph18.5 kmh 30.00 in1015.9 mb - 0.00 in0.0 mm 0.00 in0.0 mm
09:40 PM 36.1°F2.3°C 11.7°F-11.3°C 36% 9.2 mph SW14.8 kmh SW 11.5 mph18.5 kmh 30.00 in1015.9 mb - 0.00 in0.0 mm 0.00 in0.0 mm
09:50 PM 36.0°F2.2°C 12.2°F-11.0°C 37% 8.1 mph SW13.0 kmh SW 11.5 mph18.5 kmh 30.00 in1015.9 mb - 0.00 in0.0 mm 0.00 in0.0 mm
10:00 PM 35.9°F2.2°C 12.1°F-11.1°C 37% 8.1 mph SW13.0 kmh SW 15.0 mph24.1 kmh 30.00 in1015.9 mb - 0.00 in0.0 mm 0.00 in0.0 mm
10:10 PM 35.6°F2.0°C 12.5°F-10.8°C 38% 8.1 mph SW13.0 kmh SW 11.5 mph18.5 kmh 30.00 in1015.9 mb - 0.00 in0.0 mm 0.00 in0.0 mm
10:20 PM 35.6°F2.0°C 12.4°F-10.9°C 38% 3.5 mph SW5.6 kmh SW 8.1 mph13.0 kmh 30.00 in1015.9 mb - 0.00 in0.0 mm 0.00 in0.0 mm
10:30 PM 35.0°F1.7°C 12.0°F-11.1°C 38% Calm Calm 3.5 mph5.6 kmh 30.00 in1015.9 mb - 0.00 in0.0 mm 0.00 in0.0 mm
10:40 PM 34.4°F1.3°C 12.0°F-11.1°C 39% 2.3 mph SSW3.7 kmh SSW 5.8 mph9.3 kmh 30.00 in1015.9 mb - 0.00 in0.0 mm 0.00 in0.0 mm
10:50 PM 34.3°F1.3°C 12.4°F-10.9°C 40% Calm Calm -- 30.00 in1015.9 mb - 0.00 in0.0 mm 0.00 in0.0 mm
11:00 PM 33.9°F1.1°C 12.1°F-11.1°C 40% Calm Calm -- 29.99 in1015.6 mb - 0.00 in0.0 mm 0.00 in0.0 mm
11:10 PM 32.8°F0.4°C 12.8°F-10.7°C 43% Calm Calm -- 30.00 in1015.9 mb - 0.00 in0.0 mm 0.00 in0.0 mm
11:20 PM 32.3°F0.2°C 12.8°F-10.7°C 44% Calm Calm -- 30.00 in1015.9 mb - 0.00 in0.0 mm 0.00 in0.0 mm
11:30 PM 32.1°F0.1°C 12.6°F-10.8°C 44% Calm Calm -- 30.00 in1015.9 mb - 0.00 in0.0 mm 0.00 in0.0 mm
11:40 PM 31.7°F-0.2°C 12.7°F-10.7°C 45% Calm Calm -- 30.00 in1015.9 mb - 0.00 in0.0 mm 0.00 in0.0 mm
11:50 PM 31.4°F-0.3°C 13.0°F-10.6°C 46% Calm Calm -- 30.00 in1015.9 mb - 0.00 in0.0 mm 0.00 in0.0 mm